Time;durP1;ratioP1;P1;durP2;ratioP2;P2;SDS_P1;SDS_P2;PMS_P1;PMS_P2;Temp;Humidity;BMP_temperature;BMP_pressure;BME280_temperature;BME280_humidity;BME280_pressure;Samples;Min_cycle;Max_cycle;Signal;HPM_P1;HPM_P2
2024/03/23 00:01:28;;;;;;;;;;;14.20;85.00;;;;;;5107595;27;19989;-80
2024/03/23 00:03:54;;;;;;;;;;;14.10;87.00;;;;;;5108574;27;20080;-80
2024/03/23 00:06:20;;;;;;;;;;;14.00;89.20;;;;;;5072670;28;20491;-79
2024/03/23 00:08:46;;;;;;;;;;;14.00;90.20;;;;;;5064383;28;20092;-82
2024/03/23 00:11:14;;;;;;;;;;;14.10;90.30;;;;;;5062236;28;20406;-80
2024/03/23 00:13:40;;;;;;;;;;;14.10;90.60;;;;;;5067109;28;20084;-79
2024/03/23 00:16:06;;;;;;;;;;;14.20;91.20;;;;;;5061648;28;20092;-81
2024/03/23 00:18:32;;;;;;;;;;;14.20;91.00;;;;;;5062654;28;19999;-81
2024/03/23 00:21:00;;;;;;;;;;;14.20;91.60;;;;;;5088320;28;20619;-81
2024/03/23 00:23:26;;;;;;;;;;;14.20;91.60;;;;;;5063498;28;19997;-82
2024/03/23 00:25:52;;;;;;;;;;;14.20;92.10;;;;;;5094272;28;20004;-82
2024/03/23 00:28:18;;;;;;;;;;;14.20;92.70;;;;;;5088931;28;20088;-81
2024/03/23 00:30:44;;;;;;;;;;;14.10;93.10;;;;;;5089189;28;20087;-80
2024/03/23 00:33:10;;;;;;;;;;;14.20;93.60;;;;;;5091023;27;20080;-79
2024/03/23 00:35:36;;;;;;;;;;;14.10;93.80;;;;;;5061926;28;20662;-79
2024/03/23 00:38:02;;;;;;;;;;;14.10;93.90;;;;;;5064371;28;20112;-81
2024/03/23 00:40:28;;;;;;;;;;;14.10;93.60;;;;;;5067246;28;20437;-80
2024/03/23 00:42:54;;;;;;;;;;;14.00;93.20;;;;;;5061537;28;20609;-79
2024/03/23 00:45:20;;;;;;;;;;;14.00;92.70;;;;;;5051946;28;20087;-80
2024/03/23 00:47:46;;;;;;;;;;;14.00;91.30;;;;;;5060585;28;20080;-80
2024/03/23 00:50:12;;;;;;;;;;;14.00;90.70;;;;;;5088955;28;19995;-81
2024/03/23 00:52:38;;;;;;;;;;;14.00;89.20;;;;;;5059897;28;20127;-81
2024/03/23 00:55:04;;;;;;;;;;;13.90;89.00;;;;;;5062466;28;20596;-81
2024/03/23 00:57:29;;;;;;;;;;;13.70;89.40;;;;;;5090648;28;19993;-82
2024/03/23 00:59:55;;;;;;;;;;;13.60;90.00;;;;;;5065890;28;20000;-81
2024/03/23 01:02:21;;;;;;;;;;;13.60;90.50;;;;;;5062452;28;20412;-80
2024/03/23 01:04:46;;;;;;;;;;;13.60;90.90;;;;;;5063897;28;19993;-80
2024/03/23 01:07:12;;;;;;;;;;;13.60;91.70;;;;;;5100572;28;20031;-81
2024/03/23 01:09:38;;;;;;;;;;;13.60;92.20;;;;;;5099885;28;19993;-80
2024/03/23 01:12:04;;;;;;;;;;;13.50;93.40;;;;;;5105715;28;20016;-80
2024/03/23 01:14:30;;;;;;;;;;;13.50;93.50;;;;;;5102996;28;20047;-80
2024/03/23 01:16:55;;;;;;;;;;;13.40;93.70;;;;;;5085108;28;20042;-82
2024/03/23 01:19:21;;;;;;;;;;;13.40;93.40;;;;;;5103264;28;20341;-82
2024/03/23 01:21:46;;;;;;;;;;;13.30;93.00;;;;;;5102932;28;20793;-81
2024/03/23 01:24:12;;;;;;;;;;;13.30;92.00;;;;;;5105779;28;20466;-81
2024/03/23 01:26:38;;;;;;;;;;;13.30;91.40;;;;;;5108157;28;19995;-81
2024/03/23 01:29:03;;;;;;;;;;;13.30;91.20;;;;;;5082044;28;20075;-81
2024/03/23 01:31:29;;;;;;;;;;;13.00;90.80;;;;;;5099869;28;20133;-81
2024/03/23 01:33:54;;;;;;;;;;;13.00;90.90;;;;;;5101545;28;19989;-81
2024/03/23 01:36:20;;;;;;;;;;;12.90;90.70;;;;;;5102644;28;19988;-79
2024/03/23 01:38:46;;;;;;;;;;;12.90;90.60;;;;;;5082421;28;19996;-81
2024/03/23 01:41:11;;;;;;;;;;;12.90;90.30;;;;;;5109461;28;20398;-80
2024/03/23 01:43:37;;;;;;;;;;;13.00;90.00;;;;;;5096362;28;20523;-81
2024/03/23 01:46:02;;;;;;;;;;;13.00;90.10;;;;;;5097859;28;20618;-80
2024/03/23 01:48:28;;;;;;;;;;;12.90;90.10;;;;;;5105544;28;19996;-81
2024/03/23 01:50:54;;;;;;;;;;;12.90;90.20;;;;;;5099859;28;20016;-81
2024/03/23 01:53:21;;;;;;;;;;;13.00;89.30;;;;;;5107215;28;19992;-81
2024/03/23 01:55:47;;;;;;;;;;;13.10;88.90;;;;;;5106343;28;19992;-81
2024/03/23 01:58:13;;;;;;;;;;;12.90;89.50;;;;;;5106937;27;20036;-83
2024/03/23 02:00:38;;;;;;;;;;;12.80;89.70;;;;;;5081836;28;20481;-81
2024/03/23 02:03:21;;;;;;;;;;;12.80;89.60;;;;;;5103513;28;19992;-81
2024/03/23 02:05:47;;;;;;;;;;;12.70;89.80;;;;;;5105267;28;20020;-81
2024/03/23 02:08:12;;;;;;;;;;;12.40;90.50;;;;;;5105665;27;20882;-80
2024/03/23 02:10:38;;;;;;;;;;;12.30;90.60;;;;;;5109181;27;19992;-82
2024/03/23 02:13:03;;;;;;;;;;;12.40;90.20;;;;;;5105667;28;20015;-80
2024/03/23 02:15:29;;;;;;;;;;;12.40;90.10;;;;;;5105694;27;19993;-81
2024/03/23 02:17:54;;;;;;;;;;;12.40;90.40;;;;;;5106905;27;19992;-79
2024/03/23 02:20:20;;;;;;;;;;;12.20;90.50;;;;;;5103713;28;20091;-80
2024/03/23 02:22:46;;;;;;;;;;;12.10;90.30;;;;;;5103402;27;20012;-81
2024/03/23 02:25:11;;;;;;;;;;;12.00;90.60;;;;;;5093547;28;20027;-80
2024/03/23 02:27:38;;;;;;;;;;;12.10;90.60;;;;;;5105632;28;20000;-80
2024/03/23 02:30:04;;;;;;;;;;;11.90;90.50;;;;;;5090612;28;20432;-80
2024/03/23 02:32:30;;;;;;;;;;;11.70;91.30;;;;;;5107228;27;20020;-80
2024/03/23 02:34:55;;;;;;;;;;;11.70;91.40;;;;;;5089839;28;20099;-78
2024/03/23 02:37:21;;;;;;;;;;;11.50;91.50;;;;;;5108361;27;20775;-80
2024/03/23 02:39:46;;;;;;;;;;;11.40;91.70;;;;;;5103826;28;19992;-80
2024/03/23 02:42:12;;;;;;;;;;;11.10;92.50;;;;;;5108285;27;20000;-81
2024/03/23 02:44:37;;;;;;;;;;;11.20;92.10;;;;;;5117814;27;20544;-80
2024/03/23 02:47:03;;;;;;;;;;;11.20;92.40;;;;;;5087052;28;19999;-81
2024/03/23 02:49:29;;;;;;;;;;;11.40;92.10;;;;;;5106583;27;19996;-82
2024/03/23 02:51:54;;;;;;;;;;;11.40;92.30;;;;;;5107929;27;20031;-81
2024/03/23 02:54:20;;;;;;;;;;;11.40;92.40;;;;;;5104820;28;19988;-82
2024/03/23 02:56:45;;;;;;;;;;;11.30;92.50;;;;;;5087996;28;20033;-80
2024/03/23 02:59:11;;;;;;;;;;;11.40;92.60;;;;;;5103747;28;19996;-80
2024/03/23 03:01:36;;;;;;;;;;;11.30;92.70;;;;;;5105099;28;20857;-80
2024/03/23 03:04:02;;;;;;;;;;;11.30;92.60;;;;;;5105078;28;20455;-82
2024/03/23 03:06:28;;;;;;;;;;;11.30;92.60;;;;;;5104632;28;20020;-80
2024/03/23 03:08:53;;;;;;;;;;;11.40;92.40;;;;;;5104604;28;19996;-81
2024/03/23 03:11:19;;;;;;;;;;;11.40;92.80;;;;;;5086999;28;20013;-80
2024/03/23 03:13:45;;;;;;;;;;;11.30;92.30;;;;;;5104545;28;19996;-80
2024/03/23 03:16:11;;;;;;;;;;;11.40;92.40;;;;;;5086096;28;20000;-80
2024/03/23 03:18:36;;;;;;;;;;;11.20;92.50;;;;;;5104706;27;19992;-81
2024/03/23 03:21:02;;;;;;;;;;;11.30;92.30;;;;;;5104186;28;20042;-80
2024/03/23 03:23:28;;;;;;;;;;;11.40;92.20;;;;;;5104349;28;20371;-80
2024/03/23 03:25:54;;;;;;;;;;;11.50;92.40;;;;;;5104449;28;19995;-79
2024/03/23 03:28:20;;;;;;;;;;;11.40;92.00;;;;;;5104127;28;19988;-80
2024/03/23 03:30:45;;;;;;;;;;;11.30;92.20;;;;;;5103851;28;20084;-80
2024/03/23 03:33:11;;;;;;;;;;;11.00;92.90;;;;;;5104115;28;20055;-80
2024/03/23 03:35:37;;;;;;;;;;;11.30;92.70;;;;;;5104406;28;19992;-80
2024/03/23 03:38:04;;;;;;;;;;;11.30;92.70;;;;;;5099369;28;20375;-79
2024/03/23 03:40:30;;;;;;;;;;;11.40;92.10;;;;;;5103372;28;20040;-79
2024/03/23 03:42:55;;;;;;;;;;;11.30;92.10;;;;;;5102173;28;20007;-80
2024/03/23 03:45:21;;;;;;;;;;;11.20;92.70;;;;;;5100048;28;20014;-82
2024/03/23 03:47:47;;;;;;;;;;;11.20;92.70;;;;;;5104180;28;19996;-80
2024/03/23 03:50:12;;;;;;;;;;;11.20;92.80;;;;;;5088315;28;19995;-80
2024/03/23 03:52:38;;;;;;;;;;;11.20;92.60;;;;;;5103582;27;20615;-81
2024/03/23 03:55:11;;;;;;;;;;;11.40;92.40;;;;;;5089270;27;19995;-81
2024/03/23 03:57:36;;;;;;;;;;;11.20;92.60;;;;;;5101534;27;20003;-82
2024/03/23 04:00:03;;;;;;;;;;;11.40;92.40;;;;;;5101053;27;19988;-82
2024/03/23 04:02:29;;;;;;;;;;;11.30;92.70;;;;;;5103883;27;20766;-82
2024/03/23 04:04:54;;;;;;;;;;;11.20;93.00;;;;;;5084805;28;19992;-81
2024/03/23 04:07:22;;;;;;;;;;;11.30;92.90;;;;;;5105880;27;20035;-81
2024/03/23 04:09:48;;;;;;;;;;;11.30;93.00;;;;;;5105163;27;19989;-82
2024/03/23 04:12:14;;;;;;;;;;;11.30;93.10;;;;;;5104659;27;20054;-81
2024/03/23 04:14:39;;;;;;;;;;;11.00;93.80;;;;;;5101710;28;19993;-82
2024/03/23 04:17:05;;;;;;;;;;;11.20;93.60;;;;;;5103799;27;20578;-81
2024/03/23 04:19:30;;;;;;;;;;;11.20;93.90;;;;;;5103849;28;20461;-82
2024/03/23 04:21:56;;;;;;;;;;;11.20;94.10;;;;;;5103558;28;20240;-83
2024/03/23 04:24:22;;;;;;;;;;;11.20;94.00;;;;;;5104444;27;19996;-82
2024/03/23 04:26:48;;;;;;;;;;;11.20;94.00;;;;;;5103453;28;19989;-81
2024/03/23 04:29:13;;;;;;;;;;;11.30;94.10;;;;;;5103811;28;19988;-80
2024/03/23 04:31:39;;;;;;;;;;;11.40;93.90;;;;;;5102964;28;20527;-81
2024/03/23 04:34:04;;;;;;;;;;;11.30;93.90;;;;;;5103015;28;19993;-81
2024/03/23 04:36:30;;;;;;;;;;;11.30;93.80;;;;;;5084900;28;20072;-81
2024/03/23 04:38:56;;;;;;;;;;;11.40;93.80;;;;;;5101940;28;20093;-81
2024/03/23 04:41:22;;;;;;;;;;;11.50;93.90;;;;;;5084995;28;19988;-81
2024/03/23 04:43:47;;;;;;;;;;;11.30;94.00;;;;;;5095907;28;19985;-83
2024/03/23 04:46:13;;;;;;;;;;;11.40;94.30;;;;;;5074387;28;20559;-82
2024/03/23 04:48:38;;;;;;;;;;;11.20;94.60;;;;;;5103334;28;19993;-81
2024/03/23 04:51:04;;;;;;;;;;;11.10;95.20;;;;;;5081560;28;20007;-82
2024/03/23 04:53:30;;;;;;;;;;;11.10;95.30;;;;;;5103308;28;19989;-83
2024/03/23 04:55:56;;;;;;;;;;;11.10;95.50;;;;;;5084591;28;20028;-82
2024/03/23 04:58:23;;;;;;;;;;;11.20;95.70;;;;;;5102166;28;19989;-83
2024/03/23 05:00:52;;;;;;;;;;;11.10;96.00;;;;;;5102051;28;20690;-83
2024/03/23 05:03:19;;;;;;;;;;;10.80;96.50;;;;;;5102984;28;19984;-83
2024/03/23 05:05:44;;;;;;;;;;;11.10;95.90;;;;;;5102295;28;20024;-81
2024/03/23 05:08:10;;;;;;;;;;;11.00;96.20;;;;;;5098277;28;20847;-83
2024/03/23 05:10:36;;;;;;;;;;;11.00;96.10;;;;;;5102023;28;20024;-83
2024/03/23 05:13:01;;;;;;;;;;;11.20;96.00;;;;;;5082901;28;20137;-82
2024/03/23 05:15:27;;;;;;;;;;;11.00;96.10;;;;;;5099231;28;20455;-82
2024/03/23 05:17:54;;;;;;;;;;;10.90;94.80;;;;;;5104125;28;20561;-81
2024/03/23 05:20:19;;;;;;;;;;;10.70;93.20;;;;;;5105679;28;19999;-81
2024/03/23 05:22:45;;;;;;;;;;;10.70;92.40;;;;;;5103978;28;19993;-81
2024/03/23 05:25:11;;;;;;;;;;;10.50;91.60;;;;;;5088067;28;20012;-82
2024/03/23 05:27:36;;;;;;;;;;;10.30;90.60;;;;;;5106817;28;20079;-83
2024/03/23 05:30:03;;;;;;;;;;;10.10;90.50;;;;;;5085349;28;20006;-84
2024/03/23 05:32:29;;;;;;;;;;;10.10;90.50;;;;;;5101074;28;20651;-82
2024/03/23 05:34:57;;;;;;;;;;;10.00;90.40;;;;;;5106308;28;20000;-80
2024/03/23 05:37:23;;;;;;;;;;;9.80;90.10;;;;;;5106117;28;19988;-81
2024/03/23 05:39:52;;;;;;;;;;;9.90;90.10;;;;;;5105854;28;20454;-81
2024/03/23 05:42:17;;;;;;;;;;;9.90;89.50;;;;;;5105983;28;19992;-81
2024/03/23 05:44:44;;;;;;;;;;;9.90;88.10;;;;;;5094486;28;20012;-80
2024/03/23 05:47:09;;;;;;;;;;;9.70;88.00;;;;;;5106130;28;20164;-80
2024/03/23 05:49:35;;;;;;;;;;;9.80;88.20;;;;;;5106677;28;20112;-80
2024/03/23 05:52:03;;;;;;;;;;;9.70;87.70;;;;;;5102988;28;20016;-80
2024/03/23 05:54:29;;;;;;;;;;;9.80;88.00;;;;;;5106162;28;20100;-79
2024/03/23 05:56:55;;;;;;;;;;;9.80;87.90;;;;;;5105622;28;20020;-80
2024/03/23 05:59:20;;;;;;;;;;;9.60;87.00;;;;;;5106829;27;20020;-83
2024/03/23 06:01:46;;;;;;;;;;;9.60;86.70;;;;;;5106066;28;19989;-82
2024/03/23 06:04:13;;;;;;;;;;;9.70;86.90;;;;;;5106268;28;19988;-80
2024/03/23 06:06:39;;;;;;;;;;;10.00;85.90;;;;;;5105716;28;20020;-81
2024/03/23 06:09:04;;;;;;;;;;;10.10;85.20;;;;;;5105049;28;20359;-81
2024/03/23 06:11:30;;;;;;;;;;;10.20;84.60;;;;;;5106464;28;20008;-81
2024/03/23 06:13:56;;;;;;;;;;;10.30;84.70;;;;;;5111298;27;19999;-79
2024/03/23 06:16:24;;;;;;;;;;;10.20;83.40;;;;;;5107554;27;20036;-80
2024/03/23 06:18:50;;;;;;;;;;;10.10;82.40;;;;;;5111098;27;19989;-79
2024/03/23 06:21:15;;;;;;;;;;;10.00;81.80;;;;;;5107765;27;20032;-79
2024/03/23 06:23:41;;;;;;;;;;;10.10;81.20;;;;;;5109111;27;20043;-80
2024/03/23 06:26:07;;;;;;;;;;;10.00;80.70;;;;;;5108406;27;20045;-78
2024/03/23 06:28:32;;;;;;;;;;;10.10;81.20;;;;;;5111175;27;19993;-79
2024/03/23 06:30:58;;;;;;;;;;;9.90;79.70;;;;;;5101326;27;19997;-79
2024/03/23 06:33:23;;;;;;;;;;;9.70;80.30;;;;;;5111774;27;20051;-78
2024/03/23 06:35:50;;;;;;;;;;;9.40;80.30;;;;;;5105763;27;20025;-79
2024/03/23 06:38:15;;;;;;;;;;;9.20;80.70;;;;;;5091911;28;19993;-77
2024/03/23 06:40:41;;;;;;;;;;;9.60;79.90;;;;;;5107863;27;20471;-79
2024/03/23 06:43:06;;;;;;;;;;;11.40;74.20;;;;;;5109344;27;20467;-79
2024/03/23 06:45:32;;;;;;;;;;;12.40;70.60;;;;;;5101477;28;20467;-78
2024/03/23 06:47:57;;;;;;;;;;;12.10;67.30;;;;;;5105143;27;19989;-78
2024/03/23 06:50:23;;;;;;;;;;;12.40;68.80;;;;;;5106766;27;20061;-77
2024/03/23 06:52:49;;;;;;;;;;;11.50;69.30;;;;;;5107876;27;20019;-78
2024/03/23 06:55:15;;;;;;;;;;;12.50;66.70;;;;;;5104770;28;20054;-78
2024/03/23 06:57:40;;;;;;;;;;;14.00;63.00;;;;;;5091123;28;20087;-78
2024/03/23 07:00:09;;;;;;;;;;;14.60;59.80;;;;;;5112911;27;19993;-79
2024/03/23 07:02:35;;;;;;;;;;;14.30;60.00;;;;;;5116015;27;19988;-78
2024/03/23 07:05:01;;;;;;;;;;;14.80;58.90;;;;;;5090346;28;19989;-78
2024/03/23 07:07:27;;;;;;;;;;;15.80;58.10;;;;;;5105027;27;20024;-77
2024/03/23 07:09:52;;;;;;;;;;;16.10;55.20;;;;;;5102620;27;19995;-78
2024/03/23 07:12:18;;;;;;;;;;;16.50;56.50;;;;;;5104245;28;20448;-77
2024/03/23 07:14:43;;;;;;;;;;;16.60;55.00;;;;;;5091859;28;20007;-78
2024/03/23 07:17:09;;;;;;;;;;;15.10;56.80;;;;;;5106453;27;19988;-78
2024/03/23 07:19:34;;;;;;;;;;;13.60;61.80;;;;;;5106098;27;19988;-77
2024/03/23 07:22:00;;;;;;;;;;;14.20;59.30;;;;;;5104997;27;20590;-78
2024/03/23 07:24:25;;;;;;;;;;;15.40;58.50;;;;;;5090363;28;19993;-79
2024/03/23 07:26:54;;;;;;;;;;;15.60;57.10;;;;;;5102651;28;20139;-79
2024/03/23 07:29:19;;;;;;;;;;;17.30;54.60;;;;;;5104552;28;20037;-78
2024/03/23 07:31:45;;;;;;;;;;;18.20;53.00;;;;;;5107288;27;20011;-78
2024/03/23 07:34:10;;;;;;;;;;;17.90;51.80;;;;;;5104271;28;20000;-76
2024/03/23 07:36:36;;;;;;;;;;;17.00;53.80;;;;;;5097547;28;19989;-81
2024/03/23 07:39:01;;;;;;;;;;;14.70;57.60;;;;;;5097406;28;20039;-79
2024/03/23 07:41:27;;;;;;;;;;;14.10;58.70;;;;;;5103741;28;20045;-78
2024/03/23 07:43:53;;;;;;;;;;;12.90;60.80;;;;;;5104936;27;19992;-79
2024/03/23 07:46:20;;;;;;;;;;;12.80;60.60;;;;;;5103461;27;20516;-82
2024/03/23 07:48:46;;;;;;;;;;;12.50;60.30;;;;;;5094725;28;20103;-79
2024/03/23 07:51:16;;;;;;;;;;;12.40;63.10;;;;;;5087374;28;20490;-81
2024/03/23 07:53:43;;;;;;;;;;;12.40;62.90;;;;;;5103236;27;20059;-77
2024/03/23 07:56:12;;;;;;;;;;;11.80;63.60;;;;;;5082935;28;20007;-77
2024/03/23 07:58:38;;;;;;;;;;;11.80;63.90;;;;;;5101834;28;19996;-79
2024/03/23 08:01:10;;;;;;;;;;;15.80;54.70;;;;;;5102875;28;19996;-77
2024/03/23 08:03:40;;;;;;;;;;;17.40;52.60;;;;;;5088833;28;20001;-77
2024/03/23 08:06:16;;;;;;;;;;;17.70;51.90;;;;;;5102400;28;20028;-78
2024/03/23 08:08:42;;;;;;;;;;;18.70;48.60;;;;;;5099371;28;20541;-78
2024/03/23 08:11:08;;;;;;;;;;;19.90;48.60;;;;;;5103015;28;19992;-80
2024/03/23 08:13:34;;;;;;;;;;;19.90;44.90;;;;;;5102524;28;20478;-77
2024/03/23 08:16:00;;;;;;;;;;;19.30;43.90;;;;;;5090717;28;20046;-78
2024/03/23 08:18:26;;;;;;;;;;;19.40;43.20;;;;;;5102596;28;20062;-80
2024/03/23 08:21:01;;;;;;;;;;;19.30;41.60;;;;;;5102569;28;20005;-78
2024/03/23 08:23:33;;;;;;;;;;;19.50;41.10;;;;;;5109118;27;19994;-79
2024/03/23 08:26:02;;;;;;;;;;;19.90;41.90;;;;;;5097330;28;19996;-80
2024/03/23 08:28:28;;;;;;;;;;;19.90;40.50;;;;;;5102477;28;20109;-76
2024/03/23 08:30:54;;;;;;;;;;;19.80;38.40;;;;;;5102060;28;20436;-77
2024/03/23 08:33:20;;;;;;;;;;;20.40;39.20;;;;;;5102949;28;20111;-76
2024/03/23 08:35:59;;;;;;;;;;;19.90;37.90;;;;;;5093181;28;20897;-77
2024/03/23 08:38:24;;;;;;;;;;;20.60;38.80;;;;;;5084552;28;20070;-76
2024/03/23 08:41:00;;;;;;;;;;;20.40;34.10;;;;;;5102416;27;20463;-75
2024/03/23 08:43:26;;;;;;;;;;;20.70;35.50;;;;;;5106823;27;19996;-74
2024/03/23 08:45:52;;;;;;;;;;;21.60;37.40;;;;;;5113039;27;20000;-75
2024/03/23 08:48:20;;;;;;;;;;;21.90;37.40;;;;;;5093760;28;19993;-75
2024/03/23 08:50:46;;;;;;;;;;;21.30;38.90;;;;;;5091118;28;20022;-74
2024/03/23 08:53:11;;;;;;;;;;;22.00;37.00;;;;;;5109156;27;20012;-75
2024/03/23 08:55:37;;;;;;;;;;;23.10;36.10;;;;;;5108720;27;20525;-75
2024/03/23 08:58:03;;;;;;;;;;;17.40;41.30;;;;;;5091547;28;19995;-76
2024/03/23 09:00:29;;;;;;;;;;;16.80;44.20;;;;;;5094779;28;19992;-75
2024/03/23 09:02:56;;;;;;;;;;;15.70;45.00;;;;;;5108358;28;19988;-73
2024/03/23 09:05:24;;;;;;;;;;;17.40;46.30;;;;;;5102272;28;20829;-74
2024/03/23 09:07:49;;;;;;;;;;;16.60;46.20;;;;;;5100195;28;20015;-73
2024/03/23 09:10:15;;;;;;;;;;;16.30;45.80;;;;;;5093291;28;19997;-74
2024/03/23 09:12:40;;;;;;;;;;;16.50;47.20;;;;;;5106845;28;20104;-74
2024/03/23 09:15:06;;;;;;;;;;;20.10;41.30;;;;;;5099790;28;20334;-76
2024/03/23 09:17:32;;;;;;;;;;;21.30;37.40;;;;;;5094647;28;20458;-74
2024/03/23 09:19:57;;;;;;;;;;;21.50;35.90;;;;;;5081774;28;20011;-74
2024/03/23 09:22:23;;;;;;;;;;;19.00;38.90;;;;;;5100187;28;19988;-74
2024/03/23 09:24:49;;;;;;;;;;;20.70;41.10;;;;;;5105397;28;20397;-74
2024/03/23 09:27:14;;;;;;;;;;;21.60;39.30;;;;;;5106144;28;20031;-74
2024/03/23 09:29:40;;;;;;;;;;;22.00;38.50;;;;;;5102955;28;20125;-74
2024/03/23 09:32:05;;;;;;;;;;;21.50;37.90;;;;;;5084534;28;20012;-74
2024/03/23 09:34:31;;;;;;;;;;;22.60;35.60;;;;;;5084712;28;20474;-74
2024/03/23 09:36:56;;;;;;;;;;;22.90;33.40;;;;;;5103850;28;20020;-75
2024/03/23 09:39:22;;;;;;;;;;;22.50;33.70;;;;;;5101469;28;20100;-74
2024/03/23 09:41:47;;;;;;;;;;;22.40;36.40;;;;;;5102238;28;20036;-75
2024/03/23 09:44:13;;;;;;;;;;;22.10;30.30;;;;;;5102266;28;20511;-74
2024/03/23 09:46:39;;;;;;;;;;;24.00;31.50;;;;;;5102741;28;19984;-75
2024/03/23 09:49:08;;;;;;;;;;;22.80;27.40;;;;;;5100245;28;20398;-74
2024/03/23 09:51:35;;;;;;;;;;;22.90;31.60;;;;;;5098745;28;20530;-74
2024/03/23 09:54:01;;;;;;;;;;;22.90;29.30;;;;;;5102579;28;20087;-75
2024/03/23 09:56:26;;;;;;;;;;;23.30;30.00;;;;;;5103500;28;20471;-74
2024/03/23 09:58:59;;;;;;;;;;;23.30;32.50;;;;;;5102436;28;20007;-75
2024/03/23 10:01:25;;;;;;;;;;;23.40;32.60;;;;;;5102662;28;20030;-73
2024/03/23 10:03:50;;;;;;;;;;;22.30;31.80;;;;;;5102484;28;20058;-74
2024/03/23 10:06:21;;;;;;;;;;;20.60;34.10;;;;;;5102305;28;20870;-74
2024/03/23 10:08:46;;;;;;;;;;;19.80;33.80;;;;;;5099546;28;19992;-74
2024/03/23 10:11:16;;;;;;;;;;;19.80;35.00;;;;;;5106055;27;20367;-74
2024/03/23 10:13:43;;;;;;;;;;;19.30;35.50;;;;;;5106503;28;19989;-74
2024/03/23 10:16:08;;;;;;;;;;;18.40;36.50;;;;;;5105967;28;20076;-74
2024/03/23 10:18:37;;;;;;;;;;;18.10;38.40;;;;;;5107223;27;20012;-75
2024/03/23 10:21:06;;;;;;;;;;;18.00;35.90;;;;;;5106211;28;19989;-74
2024/03/23 10:23:32;;;;;;;;;;;17.10;37.00;;;;;;5104656;28;19992;-74
2024/03/23 10:26:13;;;;;;;;;;;17.50;39.50;;;;;;5106250;27;20062;-74
2024/03/23 10:29:04;;;;;;;;;;;17.70;38.50;;;;;;5100212;28;19985;-73
2024/03/23 10:31:33;;;;;;;;;;;16.50;43.10;;;;;;5103443;27;20468;-74
2024/03/23 10:34:00;;;;;;;;;;;17.20;40.20;;;;;;5104245;28;19997;-73
2024/03/23 10:36:26;;;;;;;;;;;17.10;42.20;;;;;;5113326;27;20531;-74
2024/03/23 10:38:52;;;;;;;;;;;17.20;40.20;;;;;;5098815;27;20026;-73
2024/03/23 10:41:20;;;;;;;;;;;16.30;42.60;;;;;;5105778;28;20011;-73
2024/03/23 10:43:46;;;;;;;;;;;16.00;42.60;;;;;;5092989;27;19993;-74
2024/03/23 10:46:12;;;;;;;;;;;16.80;39.90;;;;;;5114691;27;20045;-73
2024/03/23 10:48:38;;;;;;;;;;;16.80;41.30;;;;;;5104853;28;20392;-73
2024/03/23 10:51:04;;;;;;;;;;;16.10;43.30;;;;;;5102755;27;20080;-72
2024/03/23 10:53:30;;;;;;;;;;;15.90;43.20;;;;;;5103558;27;20008;-73
2024/03/23 10:55:56;;;;;;;;;;;16.50;43.20;;;;;;5103331;27;20043;-73
2024/03/23 10:58:26;;;;;;;;;;;15.80;44.10;;;;;;5092739;27;20034;-73
2024/03/23 11:00:53;;;;;;;;;;;14.80;44.60;;;;;;5096726;28;19993;-73
2024/03/23 11:03:38;;;;;;;;;;;15.50;45.30;;;;;;5097842;28;19989;-74
2024/03/23 11:06:04;;;;;;;;;;;15.60;44.10;;;;;;5084802;28;20028;-73
2024/03/23 11:08:30;;;;;;;;;;;15.30;41.40;;;;;;5094482;28;19992;-75
2024/03/23 11:11:12;;;;;;;;;;;15.30;41.60;;;;;;5097676;28;20890;-74
2024/03/23 11:13:38;;;;;;;;;;;15.50;43.40;;;;;;5089115;27;20031;-72
2024/03/23 11:16:16;;;;;;;;;;;15.10;43.10;;;;;;5097983;28;20083;-74
2024/03/23 11:18:43;;;;;;;;;;;15.30;47.40;;;;;;5104530;28;20099;-74
2024/03/23 11:21:09;;;;;;;;;;;15.30;43.10;;;;;;5099939;28;19992;-74
2024/03/23 11:23:35;;;;;;;;;;;14.90;40.30;;;;;;5103755;28;20010;-75
2024/03/23 11:26:00;;;;;;;;;;;15.30;47.30;;;;;;5105774;27;20862;-74
2024/03/23 11:28:26;;;;;;;;;;;15.20;45.30;;;;;;5102112;27;19993;-74
2024/03/23 11:30:51;;;;;;;;;;;15.30;45.80;;;;;;5104548;28;20023;-75
2024/03/23 11:33:17;;;;;;;;;;;15.20;45.20;;;;;;5100912;28;20017;-74
2024/03/23 11:35:42;;;;;;;;;;;15.00;44.00;;;;;;5104623;28;20165;-74
2024/03/23 11:38:09;;;;;;;;;;;14.70;43.60;;;;;;5098061;27;20107;-74
2024/03/23 11:40:50;;;;;;;;;;;14.30;46.10;;;;;;5104516;27;19985;-74
2024/03/23 11:43:17;;;;;;;;;;;14.90;43.70;;;;;;5106206;27;19999;-74
2024/03/23 11:45:46;;;;;;;;;;;14.90;43.70;;;;;;5103597;28;19989;-74
2024/03/23 11:48:17;;;;;;;;;;;14.50;40.00;;;;;;5105832;27;20478;-75
2024/03/23 11:50:44;;;;;;;;;;;14.90;44.30;;;;;;5099187;28;19989;-74
2024/03/23 11:53:09;;;;;;;;;;;14.30;48.60;;;;;;5102060;28;20129;-74
2024/03/23 11:55:39;;;;;;;;;;;14.90;50.50;;;;;;5108211;27;20463;-75
2024/03/23 11:58:04;;;;;;;;;;;14.50;43.30;;;;;;5103944;28;20050;-74
2024/03/23 12:00:32;;;;;;;;;;;14.10;43.90;;;;;;5105862;28;20028;-74
2024/03/23 12:03:04;;;;;;;;;;;13.70;44.20;;;;;;5101819;27;19989;-74
2024/03/23 12:05:30;;;;;;;;;;;14.40;46.70;;;;;;5105663;27;20095;-74
2024/03/23 12:08:14;;;;;;;;;;;14.90;46.00;;;;;;5107910;27;19995;-74
2024/03/23 12:10:40;;;;;;;;;;;15.00;47.50;;;;;;5105548;27;19995;-74
2024/03/23 12:13:06;;;;;;;;;;;14.40;43.30;;;;;;5105186;27;20012;-74
2024/03/23 12:15:31;;;;;;;;;;;14.50;45.50;;;;;;5103379;28;20035;-74
2024/03/23 12:18:07;;;;;;;;;;;14.50;46.70;;;;;;5104595;27;20368;-74
2024/03/23 12:20:32;;;;;;;;;;;14.20;46.40;;;;;;5101158;28;19995;-74
2024/03/23 12:23:11;;;;;;;;;;;14.00;50.60;;;;;;5101922;28;19989;-74
2024/03/23 12:25:38;;;;;;;;;;;14.00;49.20;;;;;;5101556;28;20403;-74
2024/03/23 12:28:05;;;;;;;;;;;14.10;48.40;;;;;;5089660;28;20000;-74
2024/03/23 12:30:35;;;;;;;;;;;14.50;49.20;;;;;;5102694;27;19996;-74
2024/03/23 12:33:01;;;;;;;;;;;14.40;50.50;;;;;;5104859;27;20055;-74
2024/03/23 12:35:26;;;;;;;;;;;14.50;48.90;;;;;;5102710;28;20372;-74
2024/03/23 12:37:52;;;;;;;;;;;14.50;48.40;;;;;;5103073;27;20037;-74
2024/03/23 12:40:17;;;;;;;;;;;14.10;46.50;;;;;;5105263;27;19999;-75
2024/03/23 12:42:43;;;;;;;;;;;14.40;49.00;;;;;;5103483;28;20037;-74
2024/03/23 12:45:09;;;;;;;;;;;14.30;51.00;;;;;;5103158;28;19989;-74
2024/03/23 12:47:34;;;;;;;;;;;14.20;50.00;;;;;;5103555;27;19989;-74
2024/03/23 12:50:00;;;;;;;;;;;14.00;49.30;;;;;;5104987;28;20084;-74
2024/03/23 12:52:28;;;;;;;;;;;13.80;47.10;;;;;;5102272;27;20787;-74
2024/03/23 12:54:57;;;;;;;;;;;13.40;47.20;;;;;;5106183;27;19995;-74
2024/03/23 12:57:23;;;;;;;;;;;13.40;47.60;;;;;;5102961;28;19989;-74
2024/03/23 12:59:51;;;;;;;;;;;13.80;47.50;;;;;;5102950;28;19988;-74
2024/03/23 13:02:20;;;;;;;;;;;13.70;46.20;;;;;;5102705;28;19992;-75
2024/03/23 13:04:51;;;;;;;;;;;13.70;45.80;;;;;;5102449;28;20075;-75
2024/03/23 13:07:18;;;;;;;;;;;13.50;42.80;;;;;;5102332;28;20081;-74
2024/03/23 13:09:43;;;;;;;;;;;13.50;43.50;;;;;;5106473;28;19989;-74
2024/03/23 13:12:09;;;;;;;;;;;14.00;48.40;;;;;;5102995;28;20057;-74
2024/03/23 13:14:35;;;;;;;;;;;14.30;46.20;;;;;;5102848;28;20103;-75
2024/03/23 13:17:01;;;;;;;;;;;13.80;47.20;;;;;;5101892;28;19995;-74
2024/03/23 13:19:27;;;;;;;;;;;14.00;46.90;;;;;;5104481;28;20490;-74
2024/03/23 13:21:54;;;;;;;;;;;14.00;46.80;;;;;;5105583;28;19992;-75
2024/03/23 13:24:24;;;;;;;;;;;13.90;48.00;;;;;;5102668;28;19989;-75
2024/03/23 13:26:50;;;;;;;;;;;13.30;47.90;;;;;;5103749;28;19985;-74
2024/03/23 13:29:16;;;;;;;;;;;13.20;47.10;;;;;;5099056;28;20020;-75
2024/03/23 13:31:41;;;;;;;;;;;13.10;48.70;;;;;;5091434;28;20220;-75
2024/03/23 13:34:07;;;;;;;;;;;13.60;49.40;;;;;;5095972;28;20807;-74
2024/03/23 13:36:32;;;;;;;;;;;13.70;47.30;;;;;;5102028;28;20041;-74
2024/03/23 13:38:58;;;;;;;;;;;13.90;48.60;;;;;;5082853;28;20349;-75
2024/03/23 13:41:24;;;;;;;;;;;14.30;47.30;;;;;;5080516;28;20108;-75
2024/03/23 13:43:49;;;;;;;;;;;14.20;49.30;;;;;;5091147;27;20397;-74
2024/03/23 13:46:15;;;;;;;;;;;13.80;47.20;;;;;;5105540;27;19997;-74
2024/03/23 13:48:42;;;;;;;;;;;13.10;47.60;;;;;;5109841;27;20040;-74
2024/03/23 13:51:07;;;;;;;;;;;13.40;47.60;;;;;;5107283;28;20003;-74
2024/03/23 13:53:33;;;;;;;;;;;13.40;47.50;;;;;;5107106;27;20008;-75
2024/03/23 13:55:59;;;;;;;;;;;13.20;47.50;;;;;;5113136;27;20028;-74
2024/03/23 13:58:27;;;;;;;;;;;13.40;46.50;;;;;;5113340;27;20022;-74
2024/03/23 14:00:52;;;;;;;;;;;13.30;48.20;;;;;;5105409;27;20038;-75
2024/03/23 14:03:18;;;;;;;;;;;13.40;47.80;;;;;;5105063;27;19988;-74
2024/03/23 14:05:44;;;;;;;;;;;13.30;46.40;;;;;;5104929;27;20027;-75
2024/03/23 14:08:10;;;;;;;;;;;13.30;47.70;;;;;;5100212;28;19997;-74
2024/03/23 14:10:36;;;;;;;;;;;13.50;47.00;;;;;;5101577;28;20843;-74
2024/03/23 14:13:03;;;;;;;;;;;13.50;45.30;;;;;;5096504;28;20086;-74
2024/03/23 14:15:30;;;;;;;;;;;13.70;47.90;;;;;;5100046;28;20084;-74